Garrett, PA

2:55 PM EDT on September 25, 2016 (GMT -0400)
Buffalo Creek Rd. | | Change Station

Elev 2083 ft 39.90 °N, 78.99 °W | Updated 9 seconds ago

Clear
Clear
71.8 °F
Feels Like 77 °F
N
1.3
Wind Variable Wind from East
Gusts 2.5 mph

Today
High -- | Low -- °F
--% Chance of Precip.
Yesterday
High -- | Low -- °F
Precip. -- in
Pressure 30.18 in
Visibility 10.0 miles
Clouds Clear
Heat Index 77 °F
Dew Point 52 °F
Humidity 49%
Rainfall 0.00 in
Snow Depth Not available.
7:07 AM 7:07 PM
Waning Crescent, 25% visible
METAR KCBE 251852Z AUTO 00000KT 10SM CLR 23/08 A3018 RMK AO1
Pressure 30.18 in
Visibility 10.0 miles
Clouds Clear
Heat Index 77 °F
Dew Point 52 °F
Humidity 49%
Rainfall 0.00 in
Snow Depth Not available.
7:07 AM 7:07 PM
Waning Crescent, 25% visible
METAR KCBE 251852Z AUTO 00000KT 10SM CLR 23/08 A3018 RMK AO1

10-Day Weather Forecast

Almanac

Astronomy

Sep. 25, 2016 Rise Set
Actual Time
Civil Twilight
Nautical Twilight
Astronomical Twilight
Moon
Length of Visible Light
Length of Day
Tomorrow will be .
, % of the Moon is Illuminated

Today's Extremes

State Highs State Lows

Community

WunderPhotos

Upload Photos

1,941,685 photos uploaded!

WunderBlog® & News

Nearby

Air Quality

  Air Quality AQ Index Pollutant
Not available.

Snow Depth

Station Depth Elevation

Earthquake Activity

City Distance Mag. Time & Date
Minimum magnitude displayed is 2.5.

Coastal Water Temperatures

Place Temperature

Stations

Nearby Weather Stations

Station Location Temp. Windchill Dew Point Humidity Wind Precip. Elev Updated Type
                   

Watches & Warnings

There are currently no watches in effect.